Terminal Aerodrome Forecast
Issued by NWS Wakefield, VA

Home | Current Version | Previous Version | Text Only | Print | Product List | Glossary On
Versions: 1 2 3 4 5 6 7 8 9 10 11 12 13 14 15
640
FTUS41 KAKQ 292329
TAFSBY
TAF
KSBY 292329Z 3000/3024 VRB03KT P6SM SCT250
     FM300400 00000KT 5SM BR SCT050
     FM301200 04005KT P6SM SKC
     FM301600 08007KT P6SM SCT040=

USA.gov is the U.S. government's official web portal to all federal, state and local government web resources and services.